Indianapolis, Indiana
Traffic Map
Current Weather Conditions
Indianapolis, Indiana
Overcast
Overcast
75°
Feels Like: 75°
Wind Chill: 75° Ceiling: 25000
Heat Index: 75° Visibility: 10mi
Dew Point: 64° Wind: 10mph
Humidity: 69% Direction: 180° (S)
Pressure: 29.94in Gusts: 0mph
Raw Report DataKIND 262154Z 18009KT 10SM SCT180 OVC250 24/18 A2994 RMK AO2 SLP134 T02390178
Traffic Incident Summary
Active as of:
Severity:
Category:
InformationThere was an issue retrieving the traffic information for this location. Please try a different location or try again shortly.
Advertisements
Track Severe Weather on mobile